Map

Track Data

SID SEASON NUMBER BASIN SUBBASIN NAME ISO_TIME NATURE LAT LON WMO_WIND WMO_PRES WMO_AGENCY TRACK_TYPE DIST2LAND LANDFALL IFLAG USA_AGENCY USA_ATCF_ID USA_LAT USA_LON USA_RECORD USA_STATUS USA_WIND USA_PRES USA_SSHS USA_R34_NE USA_R34_SE USA_R34_SW USA_R34_NW USA_R50_NE USA_R50_SE USA_R50_SW USA_R50_NW USA_R64_NE USA_R64_SE USA_R64_SW USA_R64_NW USA_POCI USA_ROCI USA_RMW USA_EYE TOKYO_LAT TOKYO_LON TOKYO_GRADE TOKYO_WIND TOKYO_PRES TOKYO_R50_DIR TOKYO_R50_LONG TOKYO_R50_SHORT TOKYO_R30_DIR TOKYO_R30_LONG TOKYO_R30_SHORT TOKYO_LAND CMA_LAT CMA_LON CMA_CAT CMA_WIND CMA_PRES HKO_LAT HKO_LON HKO_CAT HKO_WIND HKO_PRES NEWDELHI_LAT NEWDELHI_LON NEWDELHI_GRADE NEWDELHI_WIND NEWDELHI_PRES NEWDELHI_CI NEWDELHI_DP NEWDELHI_POCI REUNION_LAT REUNION_LON REUNION_TYPE REUNION_WIND REUNION_PRES REUNION_TNUM REUNION_CI REUNION_RMW REUNION_R34_NE REUNION_R34_SE REUNION_R34_SW REUNION_R34_NW REUNION_R50_NE REUNION_R50_SE REUNION_R50_SW REUNION_R50_NW REUNION_R64_NE REUNION_R64_SE REUNION_R64_SW REUNION_R64_NW BOM_LAT BOM_LON BOM_TYPE BOM_WIND BOM_PRES BOM_TNUM BOM_CI BOM_RMW BOM_R34_NE BOM_R34_SE BOM_R34_SW BOM_R34_NW BOM_R50_NE BOM_R50_SE BOM_R50_SW BOM_R50_NW BOM_R64_NE BOM_R64_SE BOM_R64_SW BOM_R64_NW BOM_ROCI BOM_POCI BOM_EYE BOM_POS_METHOD BOM_PRES_METHOD NADI_LAT NADI_LON NADI_CAT NADI_WIND NADI_PRES WELLINGTON_LAT WELLINGTON_LON WELLINGTON_WIND WELLINGTON_PRES DS824_LAT DS824_LON DS824_STAGE DS824_WIND DS824_PRES TD9636_LAT TD9636_LON TD9636_STAGE TD9636_WIND TD9636_PRES TD9635_LAT TD9635_LON TD9635_WIND TD9635_PRES TD9635_ROCI NEUMANN_LAT NEUMANN_LON NEUMANN_CLASS NEUMANN_WIND NEUMANN_PRES MLC_LAT MLC_LON MLC_CLASS MLC_WIND MLC_PRES USA_GUST BOM_GUST BOM_GUST_PER REUNION_GUST REUNION_GUST_PER USA_SEAHGT USA_SEARAD_NE USA_SEARAD_SE USA_SEARAD_SW USA_SEARAD_NW STORM_SPEED STORM_DIR
1899032S12054 1899 5 SI MM NOT_NAMED 1899-02-01 06:00:00 NR -12.1000 54.3000 reunion main 488 454 _____O________ -1 -12.1000 54.3000 99 9.90000 6 256
1899032S12054 1899 5 SI MM NOT_NAMED 1899-02-01 09:00:00 NR -12.1707 54.0111 main 454 430 _____P________ -1 -12.1707 54.0111 99 5 253
1899032S12054 1899 5 SI MM NOT_NAMED 1899-02-01 12:00:00 NR -12.2561 53.7667 main 430 398 _____P____O___ -1 -12.2415 53.7223 99 -12.3000 53.9000 7 6 253
1899032S12054 1899 5 SI MM NOT_NAMED 1899-02-01 15:00:00 NR -12.3428 53.4376 main 387 353 _____P____P___ -1 -12.3131 53.4336 99 -12.4023 53.4456 7 7 255
1899032S12054 1899 5 SI MM NOT_NAMED 1899-02-01 18:00:00 NR -12.4362 53.0843 main 353 308 _____P____P___ -1 -12.3860 53.1454 99 -12.5033 53.0028 7 7 255
1899032S12054 1899 5 SI MM NOT_NAMED 1899-02-01 21:00:00 NR -12.5316 52.7207 main 308 274 _____P____P___ -1 -12.4605 52.8577 99 -12.6027 52.5836 7 7 255
1899032S12054 1899 5 SI MM NOT_NAMED 1899-02-02 00:00:00 NR -12.6187 52.3854 main 274 240 _____P____O___ -1 -12.5374 52.5708 99 -12.7000 52.2000 7 7 255
1899032S12054 1899 5 SI MM NOT_NAMED 1899-02-02 03:00:00 NR -12.7063 52.0724 main 240 206 _____P____P___ -1 -12.6170 52.2849 99 -12.7956 51.8599 7 6 253
1899032S12054 1899 5 SI MM NOT_NAMED 1899-02-02 06:00:00 NR -12.7961 51.7774 reunion main 206 171 _____O____P___ -1 -12.7000 52.0000 99 9.90000 -12.8921 51.5548 7 6 252
1899032S12054 1899 5 SI MM NOT_NAMED 1899-02-02 09:00:00 NR -12.8896 51.4944 main 171 137 _____P____P___ -1 -12.7867 51.7164 99 -12.9926 51.2724 7 6 251
1899032S12054 1899 5 SI MM NOT_NAMED 1899-02-02 12:00:00 NR -12.9886 51.2173 main 137 113 _____P____O___ -1 -12.8772 51.4345 99 -13.1000 51.0000 7 6 249
1899032S12054 1899 5 SI MM NOT_NAMED 1899-02-02 15:00:00 NR -13.0946 50.9382 main 103 79 _____P____P___ -1 -12.9715 51.1546 99 -13.2177 50.7218 7 6 248
1899032S12054 1899 5 SI MM NOT_NAMED 1899-02-02 18:00:00 NR -13.2060 50.6636 main 79 44 _____P____P___ -1 -13.0696 50.8772 99 -13.3423 50.4499 7 6 247
1899032S12054 1899 5 SI MM NOT_NAMED 1899-02-02 21:00:00 NR -13.3212 50.3903 main 44 10 _____P____P___ -1 -13.1715 50.6026 99 -13.4708 50.1780 7 6 246
1899032S12054 1899 5 SI MM NOT_NAMED 1899-02-03 00:00:00 NR -13.4386 50.1157 main 10 0 _____P____O___ -1 -13.2772 50.3313 99 -13.6000 49.9000 7 6 247
1899032S12054 1899 5 SI MM NOT_NAMED 1899-02-03 03:00:00 NR -13.5579 49.8293 main 0 0 _____P____P___ -1 -13.3867 50.0636 99 -13.7291 49.5950 7 6 247
1899032S12054 1899 5 SI MM NOT_NAMED 1899-02-03 06:00:00 NR -13.6788 49.5425 reunion main 0 0 _____O____P___ -1 -13.5000 49.8000 99 9.90000 -13.8576 49.2850 7 6 247
1899032S12054 1899 5 SI MM NOT_NAMED 1899-02-03 09:00:00 NR -13.7979 49.2568 main 0 0 _____P____P___ -1 -13.6137 49.5311 99 -13.9822 48.9825 7 6 246
1899032S12054 1899 5 SI MM NOT_NAMED 1899-02-03 12:00:00 NR -13.9157 48.9826 main 0 0 _____P____O___ -1 -13.7314 49.2652 99 -14.1000 48.7000 7 6 246
1899032S12054 1899 5 SI MM NOT_NAMED 1899-02-03 15:00:00 NR -14.0279 48.7264 main 0 0 _____P____P___ -1 -13.8527 49.0036 99 -14.2030 48.4492 7 5 245
1899032S12054 1899 5 SI MM NOT_NAMED 1899-02-03 18:00:00 NR -14.1386 48.4836 main 0 0 _____P____P___ -1 -13.9773 48.7474 99 -14.2998 48.2198 7 5 244
1899032S12054 1899 5 SI MM NOT_NAMED 1899-02-03 21:00:00 NR -14.2507 48.2516 main 0 0 _____P____P___ -1 -14.1047 48.4977 99 -14.3968 48.0055 7 5 243
1899032S12054 1899 5 SI MM NOT_NAMED 1899-02-04 00:00:00 NR -14.3673 48.0279 main 0 0 _____P____O___ -1 -14.2346 48.2558 99 -14.5000 47.8000 7 5 241
1899032S12054 1899 5 SI MM NOT_NAMED 1899-02-04 03:00:00 NR -14.4901 47.8058 main 0 0 _____P____P___ -1 -14.3665 48.0229 99 -14.6137 47.5887 7 5 239
1899032S12054 1899 5 SI MM NOT_NAMED 1899-02-04 06:00:00 NR -14.6175 47.5925 reunion main 21 11 _____O____P___ -1 -14.5000 47.8000 99 9.90000 -14.7349 47.3849 7 5 238
1899032S12054 1899 5 SI MM NOT_NAMED 1899-02-04 09:00:00 NR -14.7434 47.3860 main 11 0 _____P____P___ -1 -14.6231 47.5832 99 -14.8637 47.1887 7 5 237
1899032S12054 1899 5 SI MM NOT_NAMED 1899-02-04 12:00:00 NR -14.8736 47.1882 main 10 10 _____P____O___ -1 -14.7471 47.3764 99 -15.0000 47.0000 7 5 235
1899032S12054 1899 5 SI MM NOT_NAMED 1899-02-04 15:00:00 NR -15.0062 47.0002 main 22 15 _____P____P___ -1 -14.8738 47.1786 99 -15.1387 46.8218 7 4 233
1899032S12054 1899 5 SI MM NOT_NAMED 1899-02-04 18:00:00 NR -15.1447 46.8196 main 22 10 _____P____P___ -1 -15.0046 46.9893 99 -15.2849 46.6498 7 4 230
1899032S12054 1899 5 SI MM NOT_NAMED 1899-02-04 21:00:00 NR -15.2898 46.6428 main 11 0 _____P____P___ -1 -15.1410 46.8075 99 -15.4387 46.4780 7 5 229
1899032S12054 1899 5 SI MM NOT_NAMED 1899-02-05 00:00:00 NR -15.4424 46.4663 main 10 10 _____P____O___ -1 -15.2847 46.6326 99 -15.6000 46.3000 7 5 229
1899032S12054 1899 5 SI MM NOT_NAMED 1899-02-05 03:00:00 NR -15.5985 46.2773 main 10 0 _____P____P___ -1 -15.4372 46.4637 99 -15.7598 46.0910 7 5 228
1899032S12054 1899 5 SI MM NOT_NAMED 1899-02-05 06:00:00 NR -15.7638 46.0888 reunion main 0 0 _____O____P___ -1 -15.6000 46.3000 99 9.90000 -15.9276 45.8775 7 5 228
1899032S12054 1899 5 SI MM NOT_NAMED 1899-02-05 09:00:00 NR -15.9408 45.8868 main 0 0 _____P____P___ -1 -15.7749 46.0983 99 -16.1066 45.6753 7 5 226
1899032S12054 1899 5 SI MM NOT_NAMED 1899-02-05 12:00:00 NR -16.1301 45.6991 main 0 0 _____P____O___ -1 -15.9601 45.8982 99 -16.3000 45.5000 7 5 222
1899032S12054 1899 5 SI MM NOT_NAMED 1899-02-05 15:00:00 NR -16.3242 45.5246 main 0 0 _____P____P___ -1 -16.1541 45.7063 99 -16.4943 45.3429 7 5 218
1899032S12054 1899 5 SI MM NOT_NAMED 1899-02-05 18:00:00 NR -16.5300 45.3734 main 0 0 _____P____P___ -1 -16.3551 45.5292 99 -16.7049 45.2177 7 5 211
1899032S12054 1899 5 SI MM NOT_NAMED 1899-02-05 21:00:00 NR -16.7500 45.2535 main 0 0 _____P____P___ -1 -16.5618 45.3733 99 -16.9381 45.1336 7 5 203
1899032S12054 1899 5 SI MM NOT_NAMED 1899-02-06 00:00:00 NR -16.9863 45.1727 main 0 0 _____P____O___ -1 -16.7726 45.2454 99 -17.2000 45.1000 7 5 192
1899032S12054 1899 5 SI MM NOT_NAMED 1899-02-06 03:00:00 NR -17.2552 45.1341 main 0 0 _____P____P___ -1 -16.9858 45.1521 99 -17.5246 45.1162 7 6 184
1899032S12054 1899 5 SI MM NOT_NAMED 1899-02-06 06:00:00 NR -17.5362 45.1410 reunion main 0 0 _____O____P___ -1 -17.2000 45.1000 99 9.90000 -17.8725 45.1821 7 6 174
1899032S12054 1899 5 SI MM NOT_NAMED 1899-02-06 09:00:00 NR -17.8160 45.1931 main 0 0 _____P____P___ -1 -17.4230 45.1043 99 -18.2090 45.2819 7 6 167
1899032S12054 1899 5 SI MM NOT_NAMED 1899-02-06 12:00:00 NR -18.0751 45.2753 main 0 0 _____P____O___ -1 -17.6501 45.1507 99 -18.5000 45.4000 7 5 160
1899032S12054 1899 5 SI MM NOT_NAMED 1899-02-06 15:00:00 NR -18.2931 45.3733 main 0 0 _____P____P___ -1 -17.8778 45.2319 99 -18.7085 45.5147 7 5 154
1899032S12054 1899 5 SI MM NOT_NAMED 1899-02-06 18:00:00 NR -18.4850 45.4915 main 0 0 _____P____P___ -1 -18.1024 45.3405 99 -18.8675 45.6426 7 4 147
1899032S12054 1899 5 SI MM NOT_NAMED 1899-02-06 21:00:00 NR -18.6567 45.6216 main 0 0 _____P____P___ -1 -18.3205 45.4691 99 -18.9928 45.7741 7 4 143
1899032S12054 1899 5 SI MM NOT_NAMED 1899-02-07 00:00:00 NR -18.8142 45.7551 main 0 0 _____P____O___ -1 -18.5285 45.6103 99 -19.1000 45.9000 7 4 142
1899032S12054 1899 5 SI MM NOT_NAMED 1899-02-07 03:00:00 NR -18.9686 45.8798 main 0 0 _____P____P___ -1 -18.7228 45.7564 99 -19.2143 46.0033 7 4 142
1899032S12054 1899 5 SI MM NOT_NAMED 1899-02-07 06:00:00 NR -19.1075 46.0001 reunion main 0 0 _____O____P___ -1 -18.9000 45.9000 99 9.90000 -19.3149 46.1002 7 3 141
1899032S12054 1899 5 SI MM NOT_NAMED 1899-02-07 09:00:00 NR -19.2298 46.1016 main 0 0 _____P____P___ -1 -19.0515 46.0062 99 -19.4081 46.1970 7 3 140
1899032S12054 1899 5 SI MM NOT_NAMED 1899-02-07 12:00:00 NR -19.3432 46.2071 main 0 0 _____P____O___ -1 -19.1865 46.1142 99 -19.5000 46.3000 7 3 137
1899032S12054 1899 5 SI MM NOT_NAMED 1899-02-07 15:00:00 NR -19.4537 46.3209 main 0 0 _____P____P___ -1 -19.3075 46.2240 99 -19.6000 46.4178 7 3 134
1899032S12054 1899 5 SI MM NOT_NAMED 1899-02-07 18:00:00 NR -19.5587 46.4391 main 0 0 _____P____P___ -1 -19.4173 46.3356 99 -19.7000 46.5425 7 3 133
1899032S12054 1899 5 SI MM NOT_NAMED 1899-02-07 21:00:00 NR -19.6594 46.5600 main 0 0 _____P____P___ -1 -19.5188 46.4490 99 -19.8000 46.6710 7 3 131
1899032S12054 1899 5 SI MM NOT_NAMED 1899-02-08 00:00:00 NR -19.7573 46.6821 main 0 0 _____P____O___ -1 -19.6146 46.5642 99 -19.9000 46.8000 7 3 131
1899032S12054 1899 5 SI MM NOT_NAMED 1899-02-08 03:00:00 NR -19.8557 46.8031 main 0 0 _____P____P___ -1 -19.7074 46.6812 99 -20.0040 46.9250 7 3 131
1899032S12054 1899 5 SI MM NOT_NAMED 1899-02-08 06:00:00 NR -19.9537 46.9250 reunion main 0 0 _____O____P___ -1 -19.8000 46.8000 99 9.90000 -20.1075 47.0500 7 3 131
1899032S12054 1899 5 SI MM NOT_NAMED 1899-02-08 09:00:00 NR -20.0559 47.0458 main 0 0 _____P____P___ -1 -19.9046 46.9167 99 -20.2072 47.1750 7 3 132
1899032S12054 1899 5 SI MM NOT_NAMED 1899-02-08 12:00:00 NR -20.1535 47.1675 main 0 0 _____P____O___ -1 -20.0070 47.0350 99 -20.3000 47.3000 7 3 129
1899032S12054 1899 5 SI MM NOT_NAMED 1899-02-08 15:00:00 NR -20.2409 47.2882 main 0 0 _____P____P___ -1 -20.1078 47.1552 99 -20.3740 47.4211 7 3 127
1899032S12054 1899 5 SI MM NOT_NAMED 1899-02-08 18:00:00 NR -20.3249 47.4103 main 0 0 _____P____P___ -1 -20.2073 47.2779 99 -20.4424 47.5427 7 3 126
1899032S12054 1899 5 SI MM NOT_NAMED 1899-02-08 21:00:00 NR -20.4102 47.5356 main 0 0 _____P____P___ -1 -20.3058 47.4033 99 -20.5146 47.6680 7 3 126
1899032S12054 1899 5 SI MM NOT_NAMED 1899-02-09 00:00:00 NR -20.5019 47.6659 main 0 0 _____P____O___ -1 -20.4039 47.5319 99 -20.6000 47.8000 7 3 128
1899032S12054 1899 5 SI MM NOT_NAMED 1899-02-09 03:00:00 NR -20.6082 47.8013 main 0 0 _____P____P___ -1 -20.5018 47.6640 99 -20.7147 47.9387 7 3 130
1899032S12054 1899 5 SI MM NOT_NAMED 1899-02-09 06:00:00 NR -20.7212 47.9425 reunion main 0 0 _____O____P___ -1 -20.6000 47.8000 99 9.90000 -20.8424 48.0850 7 4 130
1899032S12054 1899 5 SI MM NOT_NAMED 1899-02-09 09:00:00 NR -20.8380 48.0926 main 0 0 _____P____P___ -1 -20.7020 47.9464 99 -20.9740 48.2387 7 4 129
1899032S12054 1899 5 SI MM NOT_NAMED 1899-02-09 12:00:00 NR -20.9521 48.2489 main 0 0 _____P____O___ -1 -20.8042 48.0978 99 -21.1000 48.4000 7 4 127
1899032S12054 1899 5 SI MM NOT_NAMED 1899-02-09 15:00:00 NR -21.0597 48.4102 main 10 10 _____P____P___ -1 -20.9062 48.2521 99 -21.2132 48.5684 7 3 124
1899032S12054 1899 5 SI MM NOT_NAMED 1899-02-09 18:00:00 NR -21.1394 48.5510 main 23 23 _____P____P___ -1 -21.0077 48.4074 99 -21.3152 48.7424 7 3 120
1899032S12054 1899 5 SI MM NOT_NAMED 1899-02-09 21:00:00 NR -21.2086 48.6813 main 38 38 _____P____P___ -1 -21.1082 48.5619 99 -21.4095 48.9202 7 3 120
1899032S12054 1899 5 SI MM NOT_NAMED 1899-02-10 00:00:00 NR -21.2658 48.7907 main 51 51 _____P____O___ -1 -21.2073 48.7134 99 -21.5000 49.1000 7 2 120
1899032S12054 1899 5 SI MM NOT_NAMED 1899-02-10 03:00:00 NR -21.3047 48.8601 main 61 61 _____P________ -1 -21.3047 48.8601 99 7 2 125
1899032S12054 1899 5 SI MM NOT_NAMED 1899-02-10 06:00:00 NR -21.4000 49.0000 reunion main 72 72 _____O________ -1 -21.4000 49.0000 99 9.90000 7 3 126
1899032S12054 1899 5 SI MM NOT_NAMED 1899-02-10 09:00:00 NR -21.4929 49.1316 main 83 83 _____P________ -1 -21.4929 49.1316 99 7 3 128
1899032S12054 1899 5 SI MM NOT_NAMED 1899-02-10 12:00:00 NR -21.5837 49.2556 main 105 105 _____P________ -1 -21.5837 49.2556 99 3 129
1899032S12054 1899 5 SI MM NOT_NAMED 1899-02-10 15:00:00 NR -21.6726 49.3729 main 118 118 _____P________ -1 -21.6726 49.3729 99 3 130
1899032S12054 1899 5 SI MM NOT_NAMED 1899-02-10 18:00:00 NR -21.7600 49.4848 main 131 131 _____P________ -1 -21.7600 49.4848 99 3 130
1899032S12054 1899 5 SI MM NOT_NAMED 1899-02-10 21:00:00 NR -21.8461 49.5924 main 141 141 _____P________ -1 -21.8461 49.5924 99 3 131
1899032S12054 1899 5 SI MM NOT_NAMED 1899-02-11 00:00:00 NR -21.9313 49.6967 main 155 155 _____P________ -1 -21.9313 49.6967 99 3 132
1899032S12054 1899 5 SI MM NOT_NAMED 1899-02-11 03:00:00 NR -22.0158 49.7988 main 166 166 _____P________ -1 -22.0158 49.7988 99 3 132
1899032S12054 1899 5 SI MM NOT_NAMED 1899-02-11 06:00:00 NR -22.1000 49.9000 reunion main 178 _____O________ -1 -22.1000 49.9000 99 9.90000 3 130

About IBTrACS Database

This database is a web-friendly format of International Best Track Archive for Climate Stewardship (IBTrACS), a global best track data archive curated by NOAA dating back to 1842.

Updated: 2021-10-19